LFOT/TUF METAR and TAF weather

Enter ICAO airport designator
Station Type Date Time Source
LFOT METAR 2022/01/23 12:30 UTC NOAA

LFOT 231230Z AUTO 07013KT 9999 OVC008 03/02 Q1033 NOSIG


Station Type Date Time Source
LFOT Decoded METAR 2022/01/23 12:30 UTC NOAA

Tours, France (LFOT) 47-27N 000-43E 112M
Jan 23, 2022 - 07:30 AM EST / 2022.01.23 1230 UTC
Wind: from the ENE (070 degrees) at 15 MPH (13 KT):0
Visibility: greater than 7 mile(s):0
Sky conditions: overcast
Temperature: 37 F (3 C)
Dew Point: 35 F (2 C)
Relative Humidity: 93%
Pressure (altimeter): 30.50 in. Hg (1033 hPa)
ob: LFOT 231230Z AUTO 07013KT 9999 OVC008 03/02 Q1033 NOSIG
cycle: 12

Station Type Date Time Source
LFOT TAF 2022/01/23 12:21 UTC NOAA

TAF TAF LFOT 231100Z 2312/2412 08008KT 9999 BKN012
TEMPO 2312/2321 BKN005
TEMPO 2321/2410 3000 BR BKN003 PROB30
TEMPO 2400/2406 0800 FG VV///

Example: see airport list